sensor_id;sensor_type;location;lat;lon;timestamp;P1;durP1;ratioP1;P2;durP2;ratioP2
8187;SDS011;4135;49.184;9.722;2022-12-29T00:01:05;1.25;;;0.80;;
8187;SDS011;4135;49.184;9.722;2022-12-29T00:03:34;0.70;;;0.60;;
8187;SDS011;4135;49.184;9.722;2022-12-29T00:06:04;0.60;;;0.52;;
8187;SDS011;4135;49.184;9.722;2022-12-29T00:08:33;0.82;;;0.60;;
8187;SDS011;4135;49.184;9.722;2022-12-29T00:11:13;1.05;;;0.43;;
8187;SDS011;4135;49.184;9.722;2022-12-29T00:13:45;1.05;;;0.70;;
8187;SDS011;4135;49.184;9.722;2022-12-29T00:16:33;0.88;;;0.52;;
8187;SDS011;4135;49.184;9.722;2022-12-29T00:19:04;1.10;;;0.60;;
8187;SDS011;4135;49.184;9.722;2022-12-29T00:21:33;2.08;;;0.57;;
8187;SDS011;4135;49.184;9.722;2022-12-29T00:24:22;4.30;;;1.20;;
8187;SDS011;4135;49.184;9.722;2022-12-29T00:29:51;1.05;;;0.60;;
8187;SDS011;4135;49.184;9.722;2022-12-29T00:32:39;2.53;;;0.75;;
8187;SDS011;4135;49.184;9.722;2022-12-29T00:35:42;1.75;;;0.68;;
8187;SDS011;4135;49.184;9.722;2022-12-29T00:38:15;1.63;;;0.55;;
8187;SDS011;4135;49.184;9.722;2022-12-29T00:41:03;0.75;;;0.63;;
8187;SDS011;4135;49.184;9.722;2022-12-29T00:43:52;1.50;;;0.30;;
8187;SDS011;4135;49.184;9.722;2022-12-29T00:46:39;0.93;;;0.50;;
8187;SDS011;4135;49.184;9.722;2022-12-29T00:49:11;1.05;;;0.68;;
8187;SDS011;4135;49.184;9.722;2022-12-29T00:52:04;1.88;;;0.65;;
8187;SDS011;4135;49.184;9.722;2022-12-29T00:54:39;2.20;;;0.80;;
8187;SDS011;4135;49.184;9.722;2022-12-29T00:57:09;1.10;;;0.93;;
8187;SDS011;4135;49.184;9.722;2022-12-29T00:59:39;0.80;;;0.70;;
8187;SDS011;4135;49.184;9.722;2022-12-29T01:02:10;1.25;;;0.63;;
8187;SDS011;4135;49.184;9.722;2022-12-29T01:04:39;0.90;;;0.60;;
8187;SDS011;4135;49.184;9.722;2022-12-29T01:07:09;0.80;;;0.40;;
8187;SDS011;4135;49.184;9.722;2022-12-29T01:09:38;1.42;;;0.85;;
8187;SDS011;4135;49.184;9.722;2022-12-29T01:12:26;3.20;;;0.70;;
8187;SDS011;4135;49.184;9.722;2022-12-29T01:15:13;1.08;;;0.55;;
8187;SDS011;4135;49.184;9.722;2022-12-29T01:17:43;2.35;;;0.60;;
8187;SDS011;4135;49.184;9.722;2022-12-29T01:20:13;0.95;;;0.45;;
8187;SDS011;4135;49.184;9.722;2022-12-29T01:22:42;1.17;;;0.52;;
8187;SDS011;4135;49.184;9.722;2022-12-29T01:25:12;1.00;;;0.57;;
8187;SDS011;4135;49.184;9.722;2022-12-29T01:27:42;1.13;;;0.40;;
8187;SDS011;4135;49.184;9.722;2022-12-29T01:30:11;0.93;;;0.63;;
8187;SDS011;4135;49.184;9.722;2022-12-29T01:32:41;1.30;;;0.50;;
8187;SDS011;4135;49.184;9.722;2022-12-29T01:35:11;1.40;;;0.77;;
8187;SDS011;4135;49.184;9.722;2022-12-29T01:37:40;1.67;;;0.77;;
8187;SDS011;4135;49.184;9.722;2022-12-29T01:40:10;1.05;;;0.68;;
8187;SDS011;4135;49.184;9.722;2022-12-29T01:42:40;1.25;;;0.70;;
8187;SDS011;4135;49.184;9.722;2022-12-29T01:45:10;1.77;;;0.60;;
8187;SDS011;4135;49.184;9.722;2022-12-29T01:47:45;1.63;;;0.52;;
8187;SDS011;4135;49.184;9.722;2022-12-29T01:52:51;2.97;;;0.50;;
8187;SDS011;4135;49.184;9.722;2022-12-29T01:55:26;1.08;;;0.45;;
8187;SDS011;4135;49.184;9.722;2022-12-29T01:57:58;0.75;;;0.40;;
8187;SDS011;4135;49.184;9.722;2022-12-29T02:00:31;2.03;;;0.73;;
8187;SDS011;4135;49.184;9.722;2022-12-29T02:03:00;0.80;;;0.50;;
8187;SDS011;4135;49.184;9.722;2022-12-29T02:05:34;1.90;;;0.63;;
8187;SDS011;4135;49.184;9.722;2022-12-29T02:08:12;0.65;;;0.40;;
8187;SDS011;4135;49.184;9.722;2022-12-29T02:10:42;2.53;;;0.47;;
8187;SDS011;4135;49.184;9.722;2022-12-29T02:13:16;2.50;;;0.70;;
8187;SDS011;4135;49.184;9.722;2022-12-29T02:27:25;0.57;;;0.50;;
8187;SDS011;4135;49.184;9.722;2022-12-29T02:33:30;1.27;;;0.63;;
8187;SDS011;4135;49.184;9.722;2022-12-29T02:41:51;2.75;;;0.50;;
8187;SDS011;4135;49.184;9.722;2022-12-29T02:50:23;0.77;;;0.40;;
8187;SDS011;4135;49.184;9.722;2022-12-29T02:53:04;1.27;;;0.70;;
8187;SDS011;4135;49.184;9.722;2022-12-29T02:55:36;0.60;;;0.20;;
8187;SDS011;4135;49.184;9.722;2022-12-29T02:58:20;0.60;;;0.32;;
8187;SDS011;4135;49.184;9.722;2022-12-29T03:06:49;0.52;;;0.45;;
8187;SDS011;4135;49.184;9.722;2022-12-29T03:09:34;0.80;;;0.50;;
8187;SDS011;4135;49.184;9.722;2022-12-29T03:15:15;2.15;;;0.40;;
8187;SDS011;4135;49.184;9.722;2022-12-29T03:18:12;1.13;;;0.57;;
8187;SDS011;4135;49.184;9.722;2022-12-29T03:20:52;1.13;;;0.40;;
8187;SDS011;4135;49.184;9.722;2022-12-29T03:23:24;3.67;;;0.70;;
8187;SDS011;4135;49.184;9.722;2022-12-29T03:25:56;0.30;;;0.30;;
8187;SDS011;4135;49.184;9.722;2022-12-29T03:28:30;1.15;;;0.65;;
8187;SDS011;4135;49.184;9.722;2022-12-29T03:31:04;0.52;;;0.35;;
8187;SDS011;4135;49.184;9.722;2022-12-29T03:33:37;0.95;;;0.63;;
8187;SDS011;4135;49.184;9.722;2022-12-29T03:36:09;1.35;;;0.47;;
8187;SDS011;4135;49.184;9.722;2022-12-29T03:38:50;0.50;;;0.40;;
8187;SDS011;4135;49.184;9.722;2022-12-29T03:41:27;0.43;;;0.20;;
8187;SDS011;4135;49.184;9.722;2022-12-29T03:43:59;0.85;;;0.50;;
8187;SDS011;4135;49.184;9.722;2022-12-29T03:46:29;3.47;;;0.50;;
8187;SDS011;4135;49.184;9.722;2022-12-29T03:48:58;3.75;;;0.68;;
8187;SDS011;4135;49.184;9.722;2022-12-29T03:51:28;0.95;;;0.40;;
8187;SDS011;4135;49.184;9.722;2022-12-29T03:53:57;3.15;;;0.63;;
8187;SDS011;4135;49.184;9.722;2022-12-29T03:56:27;1.05;;;0.45;;
8187;SDS011;4135;49.184;9.722;2022-12-29T03:58:56;0.43;;;0.22;;
8187;SDS011;4135;49.184;9.722;2022-12-29T04:01:26;0.20;;;0.20;;
8187;SDS011;4135;49.184;9.722;2022-12-29T04:03:55;0.80;;;0.43;;
8187;SDS011;4135;49.184;9.722;2022-12-29T04:06:25;0.95;;;0.40;;
8187;SDS011;4135;49.184;9.722;2022-12-29T04:08:54;1.65;;;0.50;;
8187;SDS011;4135;49.184;9.722;2022-12-29T04:11:24;0.70;;;0.40;;
8187;SDS011;4135;49.184;9.722;2022-12-29T04:13:54;0.75;;;0.40;;
8187;SDS011;4135;49.184;9.722;2022-12-29T04:16:23;0.47;;;0.30;;
8187;SDS011;4135;49.184;9.722;2022-12-29T04:18:53;1.35;;;0.45;;
8187;SDS011;4135;49.184;9.722;2022-12-29T04:21:22;1.05;;;0.25;;
8187;SDS011;4135;49.184;9.722;2022-12-29T04:23:52;0.73;;;0.43;;
8187;SDS011;4135;49.184;9.722;2022-12-29T04:26:21;2.25;;;0.30;;
8187;SDS011;4135;49.184;9.722;2022-12-29T04:28:51;1.38;;;0.52;;
8187;SDS011;4135;49.184;9.722;2022-12-29T04:31:21;0.73;;;0.30;;
8187;SDS011;4135;49.184;9.722;2022-12-29T04:33:50;1.17;;;0.25;;
8187;SDS011;4135;49.184;9.722;2022-12-29T04:36:20;1.85;;;0.50;;
8187;SDS011;4135;49.184;9.722;2022-12-29T04:38:49;1.15;;;0.47;;
8187;SDS011;4135;49.184;9.722;2022-12-29T04:41:19;1.83;;;0.32;;
8187;SDS011;4135;49.184;9.722;2022-12-29T04:43:48;1.08;;;0.30;;
8187;SDS011;4135;49.184;9.722;2022-12-29T04:46:18;1.27;;;0.30;;
8187;SDS011;4135;49.184;9.722;2022-12-29T04:48:48;0.85;;;0.13;;
8187;SDS011;4135;49.184;9.722;2022-12-29T04:51:17;1.55;;;0.43;;
8187;SDS011;4135;49.184;9.722;2022-12-29T04:53:47;0.40;;;0.25;;
8187;SDS011;4135;49.184;9.722;2022-12-29T04:56:16;1.10;;;0.30;;
8187;SDS011;4135;49.184;9.722;2022-12-29T04:58:46;0.65;;;0.20;;
8187;SDS011;4135;49.184;9.722;2022-12-29T05:01:15;1.25;;;0.40;;
8187;SDS011;4135;49.184;9.722;2022-12-29T05:03:45;0.57;;;0.32;;
8187;SDS011;4135;49.184;9.722;2022-12-29T05:06:14;1.10;;;0.70;;
8187;SDS011;4135;49.184;9.722;2022-12-29T05:08:44;1.13;;;0.45;;
8187;SDS011;4135;49.184;9.722;2022-12-29T05:11:13;1.10;;;0.35;;
8187;SDS011;4135;49.184;9.722;2022-12-29T05:13:46;2.95;;;0.45;;
8187;SDS011;4135;49.184;9.722;2022-12-29T05:16:16;0.82;;;0.30;;
8187;SDS011;4135;49.184;9.722;2022-12-29T05:18:45;0.45;;;0.30;;
8187;SDS011;4135;49.184;9.722;2022-12-29T05:21:15;1.08;;;0.50;;
8187;SDS011;4135;49.184;9.722;2022-12-29T05:23:44;0.25;;;0.10;;
8187;SDS011;4135;49.184;9.722;2022-12-29T05:26:14;0.73;;;0.30;;
8187;SDS011;4135;49.184;9.722;2022-12-29T05:28:43;1.02;;;0.32;;
8187;SDS011;4135;49.184;9.722;2022-12-29T05:31:13;1.08;;;0.55;;
8187;SDS011;4135;49.184;9.722;2022-12-29T05:33:42;0.57;;;0.22;;
8187;SDS011;4135;49.184;9.722;2022-12-29T05:36:12;0.30;;;0.20;;
8187;SDS011;4135;49.184;9.722;2022-12-29T05:38:41;1.02;;;0.47;;
8187;SDS011;4135;49.184;9.722;2022-12-29T05:41:11;0.73;;;0.32;;
8187;SDS011;4135;49.184;9.722;2022-12-29T05:43:41;0.93;;;0.30;;
8187;SDS011;4135;49.184;9.722;2022-12-29T05:46:10;0.38;;;0.25;;
8187;SDS011;4135;49.184;9.722;2022-12-29T05:48:40;1.48;;;0.40;;
8187;SDS011;4135;49.184;9.722;2022-12-29T05:51:09;1.27;;;0.35;;
8187;SDS011;4135;49.184;9.722;2022-12-29T05:53:39;0.77;;;0.30;;
8187;SDS011;4135;49.184;9.722;2022-12-29T05:56:09;0.52;;;0.20;;
8187;SDS011;4135;49.184;9.722;2022-12-29T05:58:38;0.35;;;0.25;;
8187;SDS011;4135;49.184;9.722;2022-12-29T06:01:08;0.85;;;0.20;;
8187;SDS011;4135;49.184;9.722;2022-12-29T06:03:37;1.77;;;0.52;;
8187;SDS011;4135;49.184;9.722;2022-12-29T06:06:07;0.47;;;0.40;;
8187;SDS011;4135;49.184;9.722;2022-12-29T06:08:36;0.85;;;0.22;;
8187;SDS011;4135;49.184;9.722;2022-12-29T06:11:06;1.63;;;0.30;;
8187;SDS011;4135;49.184;9.722;2022-12-29T06:13:35;0.68;;;0.20;;
8187;SDS011;4135;49.184;9.722;2022-12-29T06:16:05;0.80;;;0.30;;
8187;SDS011;4135;49.184;9.722;2022-12-29T06:18:35;0.63;;;0.30;;
8187;SDS011;4135;49.184;9.722;2022-12-29T06:21:05;0.52;;;0.45;;
8187;SDS011;4135;49.184;9.722;2022-12-29T06:23:35;0.82;;;0.30;;
8187;SDS011;4135;49.184;9.722;2022-12-29T06:26:04;2.42;;;0.52;;
8187;SDS011;4135;49.184;9.722;2022-12-29T06:28:34;0.95;;;0.40;;
8187;SDS011;4135;49.184;9.722;2022-12-29T06:31:03;1.30;;;0.35;;
8187;SDS011;4135;49.184;9.722;2022-12-29T06:33:33;0.65;;;0.38;;
8187;SDS011;4135;49.184;9.722;2022-12-29T06:36:02;1.67;;;0.63;;
8187;SDS011;4135;49.184;9.722;2022-12-29T06:38:32;0.40;;;0.20;;
8187;SDS011;4135;49.184;9.722;2022-12-29T06:41:04;1.33;;;0.40;;
8187;SDS011;4135;49.184;9.722;2022-12-29T06:43:33;1.05;;;0.50;;
8187;SDS011;4135;49.184;9.722;2022-12-29T06:46:05;0.77;;;0.40;;
8187;SDS011;4135;49.184;9.722;2022-12-29T06:48:34;0.55;;;0.30;;
8187;SDS011;4135;49.184;9.722;2022-12-29T06:51:04;1.45;;;0.65;;
8187;SDS011;4135;49.184;9.722;2022-12-29T06:53:33;1.33;;;0.40;;
8187;SDS011;4135;49.184;9.722;2022-12-29T06:56:03;0.75;;;0.38;;
8187;SDS011;4135;49.184;9.722;2022-12-29T06:58:33;0.55;;;0.38;;
8187;SDS011;4135;49.184;9.722;2022-12-29T07:01:02;0.88;;;0.35;;
8187;SDS011;4135;49.184;9.722;2022-12-29T07:03:32;0.82;;;0.45;;
8187;SDS011;4135;49.184;9.722;2022-12-29T07:06:02;1.88;;;0.25;;
8187;SDS011;4135;49.184;9.722;2022-12-29T07:08:31;1.63;;;0.38;;
8187;SDS011;4135;49.184;9.722;2022-12-29T07:11:01;0.30;;;0.30;;
8187;SDS011;4135;49.184;9.722;2022-12-29T07:13:31;2.65;;;0.50;;
8187;SDS011;4135;49.184;9.722;2022-12-29T07:16:04;1.50;;;0.50;;
8187;SDS011;4135;49.184;9.722;2022-12-29T07:18:35;0.95;;;0.30;;
8187;SDS011;4135;49.184;9.722;2022-12-29T07:21:05;1.95;;;0.63;;
8187;SDS011;4135;49.184;9.722;2022-12-29T07:23:34;0.75;;;0.30;;
8187;SDS011;4135;49.184;9.722;2022-12-29T07:26:05;1.60;;;0.40;;
8187;SDS011;4135;49.184;9.722;2022-12-29T07:28:36;1.60;;;0.63;;
8187;SDS011;4135;49.184;9.722;2022-12-29T07:31:11;0.30;;;0.28;;
8187;SDS011;4135;49.184;9.722;2022-12-29T07:33:50;0.50;;;0.22;;
8187;SDS011;4135;49.184;9.722;2022-12-29T07:36:19;0.98;;;0.40;;
8187;SDS011;4135;49.184;9.722;2022-12-29T07:38:49;1.08;;;0.40;;
8187;SDS011;4135;49.184;9.722;2022-12-29T07:41:18;0.70;;;0.50;;
8187;SDS011;4135;49.184;9.722;2022-12-29T07:43:48;1.30;;;0.32;;
8187;SDS011;4135;49.184;9.722;2022-12-29T07:46:17;0.50;;;0.35;;
8187;SDS011;4135;49.184;9.722;2022-12-29T07:48:47;2.33;;;0.30;;
8187;SDS011;4135;49.184;9.722;2022-12-29T07:51:17;1.17;;;0.30;;
8187;SDS011;4135;49.184;9.722;2022-12-29T07:53:46;1.05;;;0.30;;
8187;SDS011;4135;49.184;9.722;2022-12-29T07:56:15;2.17;;;0.43;;
8187;SDS011;4135;49.184;9.722;2022-12-29T07:58:45;0.45;;;0.20;;
8187;SDS011;4135;49.184;9.722;2022-12-29T08:01:15;1.17;;;0.35;;
8187;SDS011;4135;49.184;9.722;2022-12-29T08:03:44;0.52;;;0.30;;
8187;SDS011;4135;49.184;9.722;2022-12-29T08:06:14;0.55;;;0.50;;
8187;SDS011;4135;49.184;9.722;2022-12-29T08:08:43;0.77;;;0.38;;
8187;SDS011;4135;49.184;9.722;2022-12-29T08:11:13;1.60;;;0.52;;
8187;SDS011;4135;49.184;9.722;2022-12-29T08:13:42;1.27;;;0.70;;
8187;SDS011;4135;49.184;9.722;2022-12-29T08:16:12;0.90;;;0.40;;
8187;SDS011;4135;49.184;9.722;2022-12-29T08:18:41;0.70;;;0.35;;
8187;SDS011;4135;49.184;9.722;2022-12-29T08:21:11;2.85;;;0.40;;
8187;SDS011;4135;49.184;9.722;2022-12-29T08:23:40;0.45;;;0.40;;
8187;SDS011;4135;49.184;9.722;2022-12-29T08:26:10;1.98;;;1.00;;
8187;SDS011;4135;49.184;9.722;2022-12-29T08:28:40;1.67;;;0.73;;
8187;SDS011;4135;49.184;9.722;2022-12-29T08:31:10;2.75;;;0.90;;
8187;SDS011;4135;49.184;9.722;2022-12-29T08:33:39;3.72;;;0.98;;
8187;SDS011;4135;49.184;9.722;2022-12-29T08:36:09;2.08;;;0.75;;
8187;SDS011;4135;49.184;9.722;2022-12-29T08:38:38;3.90;;;0.95;;
8187;SDS011;4135;49.184;9.722;2022-12-29T08:41:08;2.67;;;1.38;;
8187;SDS011;4135;49.184;9.722;2022-12-29T08:43:37;2.40;;;0.77;;
8187;SDS011;4135;49.184;9.722;2022-12-29T08:46:07;2.00;;;0.73;;
8187;SDS011;4135;49.184;9.722;2022-12-29T08:48:36;4.75;;;0.70;;
8187;SDS011;4135;49.184;9.722;2022-12-29T08:51:06;1.60;;;0.80;;
8187;SDS011;4135;49.184;9.722;2022-12-29T08:53:36;2.53;;;0.82;;
8187;SDS011;4135;49.184;9.722;2022-12-29T08:56:06;1.73;;;0.85;;
8187;SDS011;4135;49.184;9.722;2022-12-29T08:58:37;1.52;;;0.73;;
8187;SDS011;4135;49.184;9.722;2022-12-29T09:01:07;3.40;;;0.60;;
8187;SDS011;4135;49.184;9.722;2022-12-29T09:03:38;1.23;;;0.55;;
8187;SDS011;4135;49.184;9.722;2022-12-29T09:06:08;1.75;;;0.68;;
8187;SDS011;4135;49.184;9.722;2022-12-29T09:08:37;3.50;;;0.68;;
8187;SDS011;4135;49.184;9.722;2022-12-29T09:11:07;0.30;;;0.30;;
8187;SDS011;4135;49.184;9.722;2022-12-29T09:13:37;1.88;;;0.88;;
8187;SDS011;4135;49.184;9.722;2022-12-29T09:16:07;1.15;;;0.45;;
8187;SDS011;4135;49.184;9.722;2022-12-29T09:18:37;2.65;;;1.00;;
8187;SDS011;4135;49.184;9.722;2022-12-29T09:21:09;1.27;;;0.63;;
8187;SDS011;4135;49.184;9.722;2022-12-29T09:23:40;0.70;;;0.40;;
8187;SDS011;4135;49.184;9.722;2022-12-29T09:26:09;2.63;;;0.60;;
8187;SDS011;4135;49.184;9.722;2022-12-29T09:28:39;1.63;;;0.75;;
8187;SDS011;4135;49.184;9.722;2022-12-29T09:31:09;2.17;;;0.60;;
8187;SDS011;4135;49.184;9.722;2022-12-29T09:33:39;1.17;;;0.63;;
8187;SDS011;4135;49.184;9.722;2022-12-29T09:36:08;0.73;;;0.60;;
8187;SDS011;4135;49.184;9.722;2022-12-29T09:38:38;4.53;;;0.80;;
8187;SDS011;4135;49.184;9.722;2022-12-29T09:41:13;1.30;;;0.65;;
8187;SDS011;4135;49.184;9.722;2022-12-29T09:44:20;1.45;;;0.60;;
8187;SDS011;4135;49.184;9.722;2022-12-29T09:46:57;0.90;;;0.73;;
8187;SDS011;4135;49.184;9.722;2022-12-29T09:49:32;2.15;;;0.50;;
8187;SDS011;4135;49.184;9.722;2022-12-29T09:52:24;0.65;;;0.40;;
8187;SDS011;4135;49.184;9.722;2022-12-29T09:55:00;1.92;;;0.60;;
8187;SDS011;4135;49.184;9.722;2022-12-29T10:04:26;2.83;;;1.10;;
8187;SDS011;4135;49.184;9.722;2022-12-29T10:16:31;4.22;;;1.25;;
8187;SDS011;4135;49.184;9.722;2022-12-29T10:26:03;5.82;;;1.38;;
8187;SDS011;4135;49.184;9.722;2022-12-29T10:28:42;6.85;;;0.95;;
8187;SDS011;4135;49.184;9.722;2022-12-29T11:05:03;3.05;;;0.88;;
8187;SDS011;4135;49.184;9.722;2022-12-29T11:07:40;4.20;;;0.65;;
8187;SDS011;4135;49.184;9.722;2022-12-29T11:10:29;2.58;;;0.85;;
8187;SDS011;4135;49.184;9.722;2022-12-29T11:13:12;6.32;;;1.38;;
8187;SDS011;4135;49.184;9.722;2022-12-29T11:15:47;4.35;;;1.27;;
8187;SDS011;4135;49.184;9.722;2022-12-29T11:18:19;1.73;;;0.63;;
8187;SDS011;4135;49.184;9.722;2022-12-29T11:21:31;1.98;;;0.70;;
8187;SDS011;4135;49.184;9.722;2022-12-29T11:24:22;3.63;;;0.65;;
8187;SDS011;4135;49.184;9.722;2022-12-29T11:26:54;1.95;;;0.52;;
8187;SDS011;4135;49.184;9.722;2022-12-29T11:29:38;2.10;;;1.20;;
8187;SDS011;4135;49.184;9.722;2022-12-29T11:32:17;3.33;;;0.95;;
8187;SDS011;4135;49.184;9.722;2022-12-29T11:34:48;2.20;;;1.20;;
8187;SDS011;4135;49.184;9.722;2022-12-29T11:42:36;4.20;;;0.85;;
8187;SDS011;4135;49.184;9.722;2022-12-29T11:45:16;3.78;;;0.65;;
8187;SDS011;4135;49.184;9.722;2022-12-29T11:47:55;3.17;;;0.80;;
8187;SDS011;4135;49.184;9.722;2022-12-29T11:50:31;2.92;;;0.90;;
8187;SDS011;4135;49.184;9.722;2022-12-29T11:53:03;1.85;;;0.80;;
8187;SDS011;4135;49.184;9.722;2022-12-29T11:55:56;1.50;;;0.88;;
8187;SDS011;4135;49.184;9.722;2022-12-29T11:58:32;1.92;;;0.80;;
8187;SDS011;4135;49.184;9.722;2022-12-29T12:03:47;1.60;;;0.88;;
8187;SDS011;4135;49.184;9.722;2022-12-29T12:06:37;1.60;;;0.50;;
8187;SDS011;4135;49.184;9.722;2022-12-29T12:09:21;1.20;;;0.68;;
8187;SDS011;4135;49.184;9.722;2022-12-29T12:11:57;4.60;;;1.10;;
8187;SDS011;4135;49.184;9.722;2022-12-29T12:14:40;1.83;;;0.32;;
8187;SDS011;4135;49.184;9.722;2022-12-29T12:17:21;1.23;;;0.32;;
8187;SDS011;4135;49.184;9.722;2022-12-29T12:20:10;1.50;;;0.60;;
8187;SDS011;4135;49.184;9.722;2022-12-29T12:23:06;1.30;;;0.60;;
8187;SDS011;4135;49.184;9.722;2022-12-29T12:25:56;0.35;;;0.13;;
8187;SDS011;4135;49.184;9.722;2022-12-29T12:28:54;1.65;;;0.68;;
8187;SDS011;4135;49.184;9.722;2022-12-29T12:31:34;1.23;;;0.50;;
8187;SDS011;4135;49.184;9.722;2022-12-29T12:34:31;3.45;;;0.70;;
8187;SDS011;4135;49.184;9.722;2022-12-29T12:37:23;1.58;;;0.73;;
8187;SDS011;4135;49.184;9.722;2022-12-29T12:42:57;2.85;;;0.32;;
8187;SDS011;4135;49.184;9.722;2022-12-29T12:48:28;0.90;;;0.38;;
8187;SDS011;4135;49.184;9.722;2022-12-29T12:57:40;2.92;;;0.45;;
8187;SDS011;4135;49.184;9.722;2022-12-29T13:00:17;0.77;;;0.38;;
8187;SDS011;4135;49.184;9.722;2022-12-29T13:08:49;2.53;;;0.50;;
8187;SDS011;4135;49.184;9.722;2022-12-29T13:14:38;1.02;;;0.40;;
8187;SDS011;4135;49.184;9.722;2022-12-29T13:23:14;4.40;;;0.47;;
8187;SDS011;4135;49.184;9.722;2022-12-29T13:28:52;0.75;;;0.40;;
8187;SDS011;4135;49.184;9.722;2022-12-29T13:37:20;0.32;;;0.30;;
8187;SDS011;4135;49.184;9.722;2022-12-29T13:40:02;0.90;;;0.40;;
8187;SDS011;4135;49.184;9.722;2022-12-29T13:42:39;0.50;;;0.30;;
8187;SDS011;4135;49.184;9.722;2022-12-29T13:45:12;1.40;;;0.43;;
8187;SDS011;4135;49.184;9.722;2022-12-29T13:47:47;2.58;;;0.57;;
8187;SDS011;4135;49.184;9.722;2022-12-29T13:50:25;0.43;;;0.28;;
8187;SDS011;4135;49.184;9.722;2022-12-29T13:53:11;0.43;;;0.30;;
8187;SDS011;4135;49.184;9.722;2022-12-29T14:03:51;0.65;;;0.20;;
8187;SDS011;4135;49.184;9.722;2022-12-29T14:06:24;1.33;;;0.30;;
8187;SDS011;4135;49.184;9.722;2022-12-29T14:08:59;0.30;;;0.20;;
8187;SDS011;4135;49.184;9.722;2022-12-29T14:11:40;0.77;;;0.25;;
8187;SDS011;4135;49.184;9.722;2022-12-29T14:14:11;3.22;;;0.30;;
8187;SDS011;4135;49.184;9.722;2022-12-29T14:16:46;1.23;;;0.60;;
8187;SDS011;4135;49.184;9.722;2022-12-29T14:19:19;0.30;;;0.28;;
8187;SDS011;4135;49.184;9.722;2022-12-29T14:22:04;1.02;;;0.50;;
8187;SDS011;4135;49.184;9.722;2022-12-29T14:34:54;0.20;;;0.20;;
8187;SDS011;4135;49.184;9.722;2022-12-29T14:42:48;0.60;;;0.25;;
8187;SDS011;4135;49.184;9.722;2022-12-29T14:47:49;0.25;;;0.20;;
8187;SDS011;4135;49.184;9.722;2022-12-29T14:50:38;3.00;;;0.45;;
8187;SDS011;4135;49.184;9.722;2022-12-29T14:53:55;0.95;;;0.30;;
8187;SDS011;4135;49.184;9.722;2022-12-29T14:56:11;1.45;;;0.28;;
8187;SDS011;4135;49.184;9.722;2022-12-29T14:58:56;0.73;;;0.40;;
8187;SDS011;4135;49.184;9.722;2022-12-29T15:04:18;1.10;;;0.28;;
8187;SDS011;4135;49.184;9.722;2022-12-29T15:06:50;0.77;;;0.45;;
8187;SDS011;4135;49.184;9.722;2022-12-29T15:09:25;0.85;;;0.30;;
8187;SDS011;4135;49.184;9.722;2022-12-29T15:12:40;0.77;;;0.22;;
8187;SDS011;4135;49.184;9.722;2022-12-29T15:15:25;1.38;;;0.40;;
8187;SDS011;4135;49.184;9.722;2022-12-29T15:17:57;0.95;;;0.73;;
8187;SDS011;4135;49.184;9.722;2022-12-29T15:21:01;0.60;;;0.22;;
8187;SDS011;4135;49.184;9.722;2022-12-29T15:23:33;0.63;;;0.30;;
8187;SDS011;4135;49.184;9.722;2022-12-29T15:26:06;1.50;;;0.40;;
8187;SDS011;4135;49.184;9.722;2022-12-29T15:28:41;0.40;;;0.32;;
8187;SDS011;4135;49.184;9.722;2022-12-29T15:31:13;0.55;;;0.38;;
8187;SDS011;4135;49.184;9.722;2022-12-29T15:33:46;2.25;;;0.47;;
8187;SDS011;4135;49.184;9.722;2022-12-29T15:36:26;10.82;;;0.60;;
8187;SDS011;4135;49.184;9.722;2022-12-29T15:38:57;1.35;;;0.60;;
8187;SDS011;4135;49.184;9.722;2022-12-29T15:41:41;1.15;;;0.60;;
8187;SDS011;4135;49.184;9.722;2022-12-29T15:44:29;0.52;;;0.20;;
8187;SDS011;4135;49.184;9.722;2022-12-29T15:47:11;0.90;;;0.30;;
8187;SDS011;4135;49.184;9.722;2022-12-29T15:49:47;1.08;;;0.32;;
8187;SDS011;4135;49.184;9.722;2022-12-29T15:52:20;0.38;;;0.30;;
8187;SDS011;4135;49.184;9.722;2022-12-29T15:54:52;0.43;;;0.30;;
8187;SDS011;4135;49.184;9.722;2022-12-29T15:57:24;1.00;;;0.60;;
8187;SDS011;4135;49.184;9.722;2022-12-29T15:59:56;0.30;;;0.28;;
8187;SDS011;4135;49.184;9.722;2022-12-29T16:02:25;1.05;;;0.28;;
8187;SDS011;4135;49.184;9.722;2022-12-29T16:04:55;0.50;;;0.28;;
8187;SDS011;4135;49.184;9.722;2022-12-29T16:07:29;0.30;;;0.30;;
8187;SDS011;4135;49.184;9.722;2022-12-29T16:10:00;1.08;;;0.55;;
8187;SDS011;4135;49.184;9.722;2022-12-29T16:12:35;1.38;;;0.25;;
8187;SDS011;4135;49.184;9.722;2022-12-29T16:15:06;0.43;;;0.15;;
8187;SDS011;4135;49.184;9.722;2022-12-29T16:17:46;0.82;;;0.20;;
8187;SDS011;4135;49.184;9.722;2022-12-29T16:20:19;1.08;;;0.38;;
8187;SDS011;4135;49.184;9.722;2022-12-29T16:22:55;1.02;;;0.25;;
8187;SDS011;4135;49.184;9.722;2022-12-29T16:25:33;1.73;;;0.40;;
8187;SDS011;4135;49.184;9.722;2022-12-29T16:28:19;1.20;;;0.30;;
8187;SDS011;4135;49.184;9.722;2022-12-29T16:30:59;0.65;;;0.35;;
8187;SDS011;4135;49.184;9.722;2022-12-29T16:33:46;0.80;;;0.20;;
8187;SDS011;4135;49.184;9.722;2022-12-29T16:36:21;0.52;;;0.35;;
8187;SDS011;4135;49.184;9.722;2022-12-29T16:39:02;0.38;;;0.20;;
8187;SDS011;4135;49.184;9.722;2022-12-29T16:41:50;0.60;;;0.30;;
8187;SDS011;4135;49.184;9.722;2022-12-29T16:49:31;0.57;;;0.30;;
8187;SDS011;4135;49.184;9.722;2022-12-29T16:52:12;0.73;;;0.20;;
8187;SDS011;4135;49.184;9.722;2022-12-29T16:54:48;0.65;;;0.20;;
8187;SDS011;4135;49.184;9.722;2022-12-29T16:57:24;0.50;;;0.30;;
8187;SDS011;4135;49.184;9.722;2022-12-29T17:00:00;2.30;;;0.50;;
8187;SDS011;4135;49.184;9.722;2022-12-29T17:02:34;0.45;;;0.20;;
8187;SDS011;4135;49.184;9.722;2022-12-29T17:05:15;0.43;;;0.10;;
8187;SDS011;4135;49.184;9.722;2022-12-29T17:07:46;0.55;;;0.30;;
8187;SDS011;4135;49.184;9.722;2022-12-29T17:10:16;0.85;;;0.30;;
8187;SDS011;4135;49.184;9.722;2022-12-29T17:12:47;0.20;;;0.17;;
8187;SDS011;4135;49.184;9.722;2022-12-29T17:15:21;1.02;;;0.20;;
8187;SDS011;4135;49.184;9.722;2022-12-29T17:17:55;1.58;;;0.25;;
8187;SDS011;4135;49.184;9.722;2022-12-29T17:20:26;0.52;;;0.20;;
8187;SDS011;4135;49.184;9.722;2022-12-29T17:22:57;0.65;;;0.20;;
8187;SDS011;4135;49.184;9.722;2022-12-29T17:25:33;0.65;;;0.20;;
8187;SDS011;4135;49.184;9.722;2022-12-29T17:28:11;0.47;;;0.10;;
8187;SDS011;4135;49.184;9.722;2022-12-29T17:30:51;1.25;;;0.20;;
8187;SDS011;4135;49.184;9.722;2022-12-29T17:33:23;1.08;;;0.20;;
8187;SDS011;4135;49.184;9.722;2022-12-29T17:35:53;0.52;;;0.28;;
8187;SDS011;4135;49.184;9.722;2022-12-29T17:38:25;0.47;;;0.20;;
8187;SDS011;4135;49.184;9.722;2022-12-29T17:40:58;0.73;;;0.40;;
8187;SDS011;4135;49.184;9.722;2022-12-29T17:43:27;0.30;;;0.10;;
8187;SDS011;4135;49.184;9.722;2022-12-29T17:45:57;0.40;;;0.17;;
8187;SDS011;4135;49.184;9.722;2022-12-29T17:48:27;0.50;;;0.28;;
8187;SDS011;4135;49.184;9.722;2022-12-29T17:50:57;0.30;;;0.22;;
8187;SDS011;4135;49.184;9.722;2022-12-29T17:53:27;0.73;;;0.40;;
8187;SDS011;4135;49.184;9.722;2022-12-29T17:55:58;1.25;;;0.20;;
8187;SDS011;4135;49.184;9.722;2022-12-29T17:58:28;0.20;;;0.13;;
8187;SDS011;4135;49.184;9.722;2022-12-29T18:01:00;0.88;;;0.20;;
8187;SDS011;4135;49.184;9.722;2022-12-29T18:03:32;0.70;;;0.13;;
8187;SDS011;4135;49.184;9.722;2022-12-29T18:06:04;0.20;;;0.10;;
8187;SDS011;4135;49.184;9.722;2022-12-29T18:08:39;0.15;;;0.13;;
8187;SDS011;4135;49.184;9.722;2022-12-29T18:11:19;0.63;;;0.22;;
8187;SDS011;4135;49.184;9.722;2022-12-29T18:13:53;0.43;;;0.15;;
8187;SDS011;4135;49.184;9.722;2022-12-29T18:16:23;0.80;;;0.20;;
8187;SDS011;4135;49.184;9.722;2022-12-29T18:18:52;0.20;;;0.20;;
8187;SDS011;4135;49.184;9.722;2022-12-29T18:21:22;0.30;;;0.10;;
8187;SDS011;4135;49.184;9.722;2022-12-29T18:23:52;0.28;;;0.20;;
8187;SDS011;4135;49.184;9.722;2022-12-29T18:26:23;0.75;;;0.10;;
8187;SDS011;4135;49.184;9.722;2022-12-29T18:28:59;0.60;;;0.20;;
8187;SDS011;4135;49.184;9.722;2022-12-29T18:31:30;3.45;;;0.47;;
8187;SDS011;4135;49.184;9.722;2022-12-29T18:34:03;0.82;;;0.20;;
8187;SDS011;4135;49.184;9.722;2022-12-29T18:36:41;2.35;;;0.28;;
8187;SDS011;4135;49.184;9.722;2022-12-29T18:39:10;0.17;;;0.10;;
8187;SDS011;4135;49.184;9.722;2022-12-29T18:41:40;1.15;;;0.20;;
8187;SDS011;4135;49.184;9.722;2022-12-29T18:44:10;1.20;;;0.20;;
8187;SDS011;4135;49.184;9.722;2022-12-29T18:46:41;0.15;;;0.10;;
8187;SDS011;4135;49.184;9.722;2022-12-29T18:49:10;0.77;;;0.30;;
8187;SDS011;4135;49.184;9.722;2022-12-29T18:51:40;1.65;;;0.20;;
8187;SDS011;4135;49.184;9.722;2022-12-29T18:54:15;0.28;;;0.10;;